createdAt,value
2017-10-02T00:00:28.219Z,16.7
2017-10-02T00:01:29.610Z,16.6
2017-10-02T00:02:31.002Z,16.7
2017-10-02T00:03:32.391Z,16.6
2017-10-02T00:04:33.784Z,16.6
2017-10-02T00:05:35.178Z,16.7
2017-10-02T00:06:36.565Z,16.6
2017-10-02T00:07:37.956Z,16.7
2017-10-02T00:08:39.353Z,16.7
2017-10-02T00:09:40.731Z,16.7
2017-10-02T00:10:42.123Z,16.6
2017-10-02T00:11:43.515Z,16.6
2017-10-02T00:12:44.909Z,16.7
2017-10-02T00:13:46.302Z,16.7
2017-10-02T00:14:47.690Z,16.7
2017-10-02T00:15:49.084Z,16.7
2017-10-02T00:16:50.472Z,16.7
2017-10-02T00:17:51.863Z,16.7
2017-10-02T00:18:53.256Z,16.7
2017-10-02T00:19:54.651Z,16.7
2017-10-02T00:20:56.045Z,16.7
2017-10-02T00:21:57.433Z,16.7
2017-10-02T00:22:58.824Z,16.7
2017-10-02T00:24:00.213Z,16.7
2017-10-02T00:25:01.603Z,16.7
2017-10-02T00:26:02.998Z,16.7
2017-10-02T00:27:04.390Z,16.7
2017-10-02T00:28:05.780Z,16.7
2017-10-02T00:29:07.173Z,16.7
2017-10-02T00:30:08.560Z,16.6
2017-10-02T00:31:09.958Z,16.7
2017-10-02T00:32:11.342Z,16.7
2017-10-02T00:33:12.733Z,16.7
2017-10-02T00:34:14.129Z,16.7
2017-10-02T00:35:15.517Z,16.7
2017-10-02T00:36:16.906Z,16.7
2017-10-02T00:37:18.298Z,16.7
2017-10-02T00:38:19.689Z,16.8
2017-10-02T00:39:21.083Z,16.8
2017-10-02T00:40:22.476Z,16.7
2017-10-02T00:41:23.865Z,16.8
2017-10-02T00:42:25.256Z,16.8
2017-10-02T00:43:26.647Z,16.8
2017-10-02T00:44:28.039Z,16.8
2017-10-02T00:45:29.427Z,16.8
2017-10-02T00:46:30.821Z,16.8
2017-10-02T00:47:32.212Z,16.8
2017-10-02T00:48:33.604Z,16.8
2017-10-02T00:49:34.994Z,16.8
2017-10-02T00:50:36.384Z,16.8
2017-10-02T00:51:37.776Z,16.8
2017-10-02T00:52:39.166Z,16.8
2017-10-02T00:53:40.557Z,16.8
2017-10-02T00:54:41.949Z,16.8
2017-10-02T00:55:43.344Z,16.8
2017-10-02T00:56:44.732Z,16.8
2017-10-02T00:57:46.125Z,16.8
2017-10-02T00:58:47.514Z,16.7
2017-10-02T00:59:48.904Z,16.7
2017-10-02T01:00:50.296Z,16.7
2017-10-02T01:01:51.687Z,16.7
2017-10-02T01:02:53.077Z,16.8
2017-10-02T01:03:54.510Z,16.7
2017-10-02T01:04:55.904Z,16.7
2017-10-02T01:05:57.297Z,16.7
2017-10-02T01:06:58.687Z,16.8
2017-10-02T01:08:00.087Z,16.7
2017-10-02T01:09:01.472Z,16.7
2017-10-02T01:10:02.863Z,16.7
2017-10-02T01:11:04.253Z,16.7
2017-10-02T01:12:05.641Z,16.7
2017-10-02T01:13:07.032Z,16.7
2017-10-02T01:14:08.424Z,16.8
2017-10-02T01:15:09.814Z,16.8
2017-10-02T01:16:11.208Z,16.8
2017-10-02T01:17:12.598Z,16.8
2017-10-02T01:18:13.987Z,16.8
2017-10-02T01:19:15.377Z,16.7
2017-10-02T01:20:16.765Z,16.8
2017-10-02T01:21:18.158Z,16.8
2017-10-02T01:22:19.549Z,16.8
2017-10-02T01:23:20.942Z,16.8
2017-10-02T01:24:22.335Z,16.8
2017-10-02T01:25:23.723Z,16.9
2017-10-02T01:26:25.116Z,16.8
2017-10-02T01:27:26.505Z,16.8
2017-10-02T01:28:27.897Z,16.8
2017-10-02T01:29:29.288Z,16.8
2017-10-02T01:30:30.679Z,16.9
2017-10-02T01:31:33.505Z,16.8
2017-10-02T01:32:34.894Z,16.8
2017-10-02T01:33:36.285Z,16.9
2017-10-02T01:34:37.675Z,16.9
2017-10-02T01:35:39.065Z,16.9
2017-10-02T01:36:40.453Z,16.8
2017-10-02T01:37:41.843Z,16.8
2017-10-02T01:38:43.242Z,16.9
2017-10-02T01:39:44.630Z,16.8
2017-10-02T01:40:46.019Z,16.8
2017-10-02T01:41:47.404Z,16.9
2017-10-02T01:42:48.796Z,16.9
2017-10-02T01:43:50.188Z,16.9
2017-10-02T01:44:51.580Z,16.9
2017-10-02T01:45:52.971Z,16.9
2017-10-02T01:46:54.359Z,16.9
2017-10-02T01:47:55.749Z,16.9
2017-10-02T01:48:57.137Z,16.9
2017-10-02T01:49:58.531Z,16.9
2017-10-02T01:50:59.925Z,17.0
2017-10-02T01:52:01.317Z,16.9
2017-10-02T01:53:02.710Z,17.0
2017-10-02T01:54:04.129Z,17.0
2017-10-02T01:55:05.524Z,16.9
2017-10-02T01:56:06.916Z,16.9
2017-10-02T01:57:08.309Z,17.0
2017-10-02T01:58:09.698Z,16.9
2017-10-02T01:59:11.091Z,16.9
2017-10-02T02:00:12.484Z,16.9
2017-10-02T02:01:13.873Z,16.9
2017-10-02T02:02:15.263Z,16.8
2017-10-02T02:03:16.653Z,16.8
2017-10-02T02:04:18.046Z,16.8
2017-10-02T02:05:19.435Z,16.8
2017-10-02T02:06:20.829Z,16.7
2017-10-02T02:07:22.217Z,16.8
2017-10-02T02:08:23.608Z,16.8
2017-10-02T02:09:24.999Z,16.8
2017-10-02T02:10:26.387Z,16.7
2017-10-02T02:11:27.778Z,16.8
2017-10-02T02:12:29.168Z,16.8
2017-10-02T02:13:30.561Z,16.8
2017-10-02T02:14:31.955Z,16.9
2017-10-02T02:15:33.342Z,16.7
2017-10-02T02:16:34.735Z,16.7
2017-10-02T02:17:36.124Z,16.7
2017-10-02T02:18:37.515Z,16.8
2017-10-02T02:19:38.910Z,16.8
2017-10-02T02:20:40.327Z,16.8
2017-10-02T02:21:41.691Z,16.7
2017-10-02T02:22:43.080Z,16.6
2017-10-02T02:23:44.470Z,16.6
2017-10-02T02:24:45.859Z,16.7
2017-10-02T02:25:47.249Z,16.7
2017-10-02T02:26:48.641Z,16.6
2017-10-02T02:27:50.032Z,16.6
2017-10-02T02:28:51.422Z,16.6
2017-10-02T02:29:52.815Z,16.6
2017-10-02T02:30:54.201Z,16.6
2017-10-02T02:31:55.594Z,16.6
2017-10-02T02:32:56.982Z,16.6
2017-10-02T02:33:58.374Z,16.6
2017-10-02T02:34:59.774Z,16.5
2017-10-02T02:36:01.165Z,16.6
2017-10-02T02:37:02.551Z,16.6
2017-10-02T02:38:03.941Z,16.6
2017-10-02T02:39:05.332Z,16.5
2017-10-02T02:40:06.723Z,16.6
2017-10-02T02:41:08.115Z,16.6
2017-10-02T02:42:09.510Z,16.5
2017-10-02T02:43:10.903Z,16.6
2017-10-02T02:44:12.293Z,16.6
2017-10-02T02:45:13.681Z,16.5
2017-10-02T02:46:15.074Z,16.6
2017-10-02T02:47:16.461Z,16.5
2017-10-02T02:48:17.855Z,16.5
2017-10-02T02:49:19.246Z,16.5
2017-10-02T02:50:20.638Z,16.4
2017-10-02T02:51:22.027Z,16.5
2017-10-02T02:52:23.417Z,16.5
2017-10-02T02:53:24.806Z,16.5
2017-10-02T02:54:26.197Z,16.5
2017-10-02T02:55:27.589Z,16.5
2017-10-02T02:56:28.980Z,16.4
2017-10-02T02:57:30.372Z,16.5
2017-10-02T02:58:31.763Z,16.5
2017-10-02T02:59:33.150Z,16.5
2017-10-02T03:00:34.538Z,16.4
2017-10-02T03:01:35.926Z,16.5
2017-10-02T03:02:37.318Z,16.4
2017-10-02T03:03:38.710Z,16.4
2017-10-02T03:04:40.100Z,16.6
2017-10-02T03:05:41.491Z,16.5
2017-10-02T03:06:42.879Z,16.6
2017-10-02T03:07:44.269Z,16.6
2017-10-02T03:08:45.661Z,16.5
2017-10-02T03:09:47.051Z,16.5
2017-10-02T03:10:48.445Z,16.5
2017-10-02T03:11:49.834Z,16.6
2017-10-02T03:12:51.221Z,16.6
2017-10-02T03:13:52.611Z,16.6
2017-10-02T03:14:54.002Z,16.6
2017-10-02T03:15:55.393Z,16.6
2017-10-02T03:16:56.783Z,16.6
2017-10-02T03:17:58.172Z,16.6
2017-10-02T03:18:59.563Z,16.7
2017-10-02T03:20:00.952Z,16.6
2017-10-02T03:21:02.343Z,16.7
2017-10-02T03:22:03.735Z,16.6
2017-10-02T03:23:05.121Z,16.7
2017-10-02T03:24:06.509Z,16.7
2017-10-02T03:25:07.902Z,16.7
2017-10-02T03:26:09.294Z,16.7
2017-10-02T03:27:10.684Z,16.7
2017-10-02T03:28:12.075Z,16.7
2017-10-02T03:29:13.463Z,16.7
2017-10-02T03:30:14.855Z,16.6
2017-10-02T03:31:16.247Z,16.6
2017-10-02T03:32:17.637Z,16.6
2017-10-02T03:33:19.027Z,16.5
2017-10-02T03:34:20.417Z,16.5
2017-10-02T03:35:21.807Z,16.6
2017-10-02T03:36:23.197Z,16.5
2017-10-02T03:37:24.591Z,16.4
2017-10-02T03:38:25.980Z,16.3
2017-10-02T03:39:27.370Z,16.3
2017-10-02T03:40:28.761Z,16.3
2017-10-02T03:41:30.149Z,16.3
2017-10-02T03:42:31.539Z,16.3
2017-10-02T03:43:32.929Z,16.3
2017-10-02T03:44:34.320Z,16.3
2017-10-02T03:45:35.710Z,16.2
2017-10-02T03:46:37.104Z,16.3
2017-10-02T03:47:38.495Z,16.3
2017-10-02T03:48:39.883Z,16.3
2017-10-02T03:49:41.276Z,16.3
2017-10-02T03:50:42.665Z,16.3
2017-10-02T03:51:44.056Z,16.3
2017-10-02T03:52:45.446Z,16.3
2017-10-02T03:53:46.839Z,16.3
2017-10-02T03:54:48.231Z,16.3
2017-10-02T03:55:49.621Z,16.3
2017-10-02T03:56:51.011Z,16.3
2017-10-02T03:57:52.400Z,16.3
2017-10-02T03:58:53.792Z,16.4
2017-10-02T03:59:55.183Z,16.3
2017-10-02T04:00:56.573Z,16.3
2017-10-02T04:01:57.964Z,16.3
2017-10-02T04:02:59.353Z,16.3
2017-10-02T04:04:00.742Z,16.3
2017-10-02T04:05:02.134Z,16.3
2017-10-02T04:06:03.526Z,16.3
2017-10-02T04:07:04.917Z,16.3
2017-10-02T04:08:06.305Z,16.4
2017-10-02T04:09:07.696Z,16.3
2017-10-02T04:10:09.087Z,16.5
2017-10-02T04:11:10.491Z,16.4
2017-10-02T04:12:11.878Z,16.4
2017-10-02T04:13:13.268Z,16.4
2017-10-02T04:14:14.659Z,16.3
2017-10-02T04:15:16.051Z,16.4
2017-10-02T04:16:17.443Z,16.4
2017-10-02T04:17:18.829Z,16.4
2017-10-02T04:18:20.220Z,16.3
2017-10-02T04:19:21.608Z,16.4
2017-10-02T04:20:23.003Z,16.5
2017-10-02T04:21:24.391Z,16.5
2017-10-02T04:22:25.784Z,16.5
2017-10-02T04:23:27.177Z,16.5
2017-10-02T04:24:28.566Z,16.4
2017-10-02T04:25:29.954Z,16.5
2017-10-02T04:26:31.341Z,16.5
2017-10-02T04:27:32.730Z,16.4
2017-10-02T04:28:34.124Z,16.6
2017-10-02T04:29:35.515Z,16.6
2017-10-02T04:30:36.908Z,16.6
2017-10-02T04:31:38.300Z,16.6
2017-10-02T04:32:39.690Z,16.7
2017-10-02T04:33:41.080Z,16.6
2017-10-02T04:34:42.470Z,16.7
2017-10-02T04:35:43.859Z,16.7
2017-10-02T04:36:45.253Z,16.7
2017-10-02T04:37:46.644Z,16.7
2017-10-02T04:38:48.037Z,16.7
2017-10-02T04:39:49.485Z,16.7
2017-10-02T04:40:50.871Z,16.7
2017-10-02T04:41:52.263Z,16.7
2017-10-02T04:42:53.670Z,16.8
2017-10-02T04:43:55.064Z,16.8
2017-10-02T04:44:56.457Z,16.8
2017-10-02T04:45:57.849Z,16.8
2017-10-02T04:46:59.238Z,16.8
2017-10-02T04:48:00.629Z,16.9
2017-10-02T04:49:02.020Z,16.8
2017-10-02T04:50:03.408Z,16.8
2017-10-02T04:51:04.798Z,16.8
2017-10-02T04:52:06.202Z,16.9
2017-10-02T04:53:07.579Z,16.9
2017-10-02T04:54:08.968Z,17.0
2017-10-02T04:55:10.362Z,16.9
2017-10-02T04:56:11.755Z,16.8
2017-10-02T04:57:13.145Z,16.9
2017-10-02T04:58:14.533Z,17.0
2017-10-02T04:59:15.927Z,16.9
2017-10-02T05:00:17.312Z,16.9
2017-10-02T05:01:18.702Z,17.0
2017-10-02T05:02:20.334Z,17.1
2017-10-02T05:03:21.720Z,17.0
2017-10-02T05:04:23.111Z,17.0
2017-10-02T05:05:24.499Z,17.0
2017-10-02T05:06:25.891Z,17.0
2017-10-02T05:07:27.283Z,17.1
2017-10-02T05:08:28.664Z,17.0
2017-10-02T05:09:30.051Z,17.0
2017-10-02T05:10:31.441Z,17.1
2017-10-02T05:11:32.832Z,17.1
2017-10-02T05:12:34.225Z,17.1
2017-10-02T05:13:35.615Z,17.1
2017-10-02T05:14:37.003Z,17.1
2017-10-02T05:15:38.396Z,17.1
2017-10-02T05:16:39.784Z,17.1
2017-10-02T05:17:41.177Z,17.1
2017-10-02T05:18:42.576Z,17.2
2017-10-02T05:19:43.962Z,17.1
2017-10-02T05:20:45.356Z,17.2
2017-10-02T05:21:46.744Z,17.2
2017-10-02T05:22:48.137Z,17.2
2017-10-02T05:23:49.529Z,17.1
2017-10-02T05:24:50.918Z,17.2
2017-10-02T05:25:52.310Z,17.2
2017-10-02T05:26:53.700Z,17.2
2017-10-02T05:27:55.105Z,17.2
2017-10-02T05:28:56.489Z,17.3
2017-10-02T05:29:57.892Z,17.2
2017-10-02T05:30:59.282Z,17.2
2017-10-02T05:32:00.672Z,17.2
2017-10-02T05:33:02.064Z,17.2
2017-10-02T05:34:03.456Z,17.2
2017-10-02T05:35:04.849Z,17.2
2017-10-02T05:36:06.239Z,17.2
2017-10-02T05:37:07.631Z,17.3
2017-10-02T05:38:09.022Z,17.2
2017-10-02T05:39:10.412Z,17.3
2017-10-02T05:40:11.804Z,17.3
2017-10-02T05:41:13.197Z,17.2
2017-10-02T05:42:14.591Z,17.3
2017-10-02T05:43:15.986Z,17.3
2017-10-02T05:44:17.376Z,17.3
2017-10-02T05:45:18.770Z,17.3
2017-10-02T05:46:20.162Z,17.3
2017-10-02T05:47:21.555Z,17.3
2017-10-02T05:48:22.947Z,17.4
2017-10-02T05:49:24.339Z,17.4
2017-10-02T05:50:25.725Z,17.4
2017-10-02T05:51:27.118Z,17.4
2017-10-02T05:52:28.511Z,17.4
2017-10-02T05:53:29.907Z,17.4
2017-10-02T05:54:31.302Z,17.4
2017-10-02T05:55:32.702Z,17.4
2017-10-02T05:56:34.086Z,17.4
2017-10-02T05:57:35.502Z,17.3
2017-10-02T05:58:36.897Z,17.4
2017-10-02T05:59:38.291Z,17.5
2017-10-02T06:00:39.683Z,17.4
2017-10-02T06:01:41.080Z,17.5
2017-10-02T06:02:42.473Z,17.5
2017-10-02T06:03:43.872Z,17.5
2017-10-02T06:04:45.262Z,17.5
2017-10-02T06:05:46.676Z,17.5
2017-10-02T06:06:48.046Z,17.5
2017-10-02T06:07:49.438Z,17.4
2017-10-02T06:08:50.832Z,17.4
2017-10-02T06:09:52.225Z,17.4
2017-10-02T06:10:53.622Z,17.4
2017-10-02T06:11:55.011Z,17.3
2017-10-02T06:12:56.399Z,17.4
2017-10-02T06:13:57.791Z,17.4
2017-10-02T06:14:59.181Z,17.4
2017-10-02T06:16:00.581Z,17.4
2017-10-02T06:17:01.975Z,17.4
2017-10-02T06:18:03.368Z,17.4
2017-10-02T06:19:04.761Z,17.4
2017-10-02T06:20:06.154Z,17.3
2017-10-02T06:21:07.546Z,17.3
2017-10-02T06:22:08.941Z,17.4
2017-10-02T06:23:10.332Z,17.4
2017-10-02T06:24:11.729Z,17.3
2017-10-02T06:25:13.124Z,17.3
2017-10-02T06:26:14.516Z,17.4
2017-10-02T06:27:15.909Z,17.3
2017-10-02T06:28:17.305Z,17.3
2017-10-02T06:29:18.704Z,17.3
2017-10-02T06:30:20.097Z,17.3
2017-10-02T06:31:21.489Z,17.3
2017-10-02T06:32:22.884Z,17.4
2017-10-02T06:33:24.277Z,17.3
2017-10-02T06:34:25.669Z,17.3
2017-10-02T06:35:27.063Z,17.3
2017-10-02T06:36:28.459Z,17.3
2017-10-02T06:37:29.863Z,17.3
2017-10-02T06:38:31.253Z,17.3
2017-10-02T06:39:32.647Z,17.4
2017-10-02T06:40:34.041Z,17.3
2017-10-02T06:41:35.431Z,17.4
2017-10-02T06:42:36.823Z,17.4
2017-10-02T06:43:38.216Z,17.4
2017-10-02T06:44:39.614Z,17.4
2017-10-02T06:45:41.005Z,17.3
2017-10-02T06:46:42.402Z,17.5
2017-10-02T06:47:43.792Z,17.4
2017-10-02T06:48:45.184Z,17.4
2017-10-02T06:49:46.579Z,17.5
2017-10-02T06:50:47.973Z,17.4
2017-10-02T06:51:49.363Z,17.5
2017-10-02T06:52:50.759Z,17.5
2017-10-02T06:53:52.153Z,17.4
2017-10-02T06:54:53.547Z,17.4
2017-10-02T06:55:54.941Z,17.4
2017-10-02T06:56:56.335Z,17.4
2017-10-02T06:57:57.729Z,17.4
2017-10-02T06:58:59.122Z,17.4
2017-10-02T07:00:00.519Z,17.4
2017-10-02T07:01:01.913Z,17.4
2017-10-02T07:02:03.306Z,17.4
2017-10-02T07:03:04.699Z,17.5
2017-10-02T07:04:06.092Z,17.4
2017-10-02T07:05:07.485Z,17.4
2017-10-02T07:06:08.878Z,17.4
2017-10-02T07:07:10.275Z,17.4
2017-10-02T07:08:11.669Z,17.4
2017-10-02T07:09:13.060Z,17.3
2017-10-02T07:10:14.459Z,17.4
2017-10-02T07:11:15.850Z,17.4
2017-10-02T07:12:17.242Z,17.4
2017-10-02T07:13:18.640Z,17.4
2017-10-02T07:14:20.040Z,17.5
2017-10-02T07:15:21.432Z,17.4
2017-10-02T07:16:22.828Z,17.4
2017-10-02T07:17:24.221Z,17.5
2017-10-02T07:18:25.616Z,17.4
2017-10-02T07:19:27.012Z,17.4
2017-10-02T07:20:28.411Z,17.4
2017-10-02T07:21:29.805Z,17.4
2017-10-02T07:22:31.202Z,17.4
2017-10-02T07:23:32.594Z,17.3
2017-10-02T07:24:33.984Z,17.4
2017-10-02T07:25:35.381Z,17.4
2017-10-02T07:26:36.774Z,17.4
2017-10-02T07:27:38.175Z,17.4
2017-10-02T07:28:39.561Z,17.4
2017-10-02T07:29:40.909Z,17.4
2017-10-02T07:30:42.303Z,17.4
2017-10-02T07:31:43.696Z,17.4
2017-10-02T07:32:45.091Z,17.3
2017-10-02T07:33:46.485Z,17.3
2017-10-02T07:34:47.881Z,17.4
2017-10-02T07:35:49.275Z,17.3
2017-10-02T07:36:50.672Z,17.3
2017-10-02T07:37:52.062Z,17.2
2017-10-02T07:38:53.459Z,17.3
2017-10-02T07:39:54.853Z,17.3
2017-10-02T07:40:56.247Z,17.3
2017-10-02T07:41:57.639Z,17.3
2017-10-02T07:42:59.037Z,17.3
2017-10-02T07:44:00.444Z,17.3
2017-10-02T07:45:01.831Z,17.4
2017-10-02T07:46:03.221Z,17.3
2017-10-02T07:47:04.615Z,17.3
2017-10-02T07:48:06.006Z,17.4
2017-10-02T07:49:10.152Z,17.3
2017-10-02T07:50:11.545Z,17.3
2017-10-02T07:51:12.942Z,17.3
2017-10-02T07:52:14.334Z,17.4
2017-10-02T07:53:15.726Z,17.3
2017-10-02T07:54:17.119Z,17.3
2017-10-02T07:55:18.514Z,17.4
2017-10-02T07:56:19.908Z,17.4
2017-10-02T07:57:21.308Z,17.3
2017-10-02T07:58:22.709Z,17.4
2017-10-02T07:59:24.104Z,17.4
2017-10-02T08:00:25.497Z,17.4
2017-10-02T08:01:26.902Z,17.4
2017-10-02T08:02:28.290Z,17.4
2017-10-02T08:03:29.698Z,17.4
2017-10-02T08:04:31.085Z,17.4
2017-10-02T08:05:32.480Z,17.5
2017-10-02T08:06:33.871Z,17.4
2017-10-02T08:07:35.266Z,17.5
2017-10-02T08:08:36.660Z,17.4
2017-10-02T08:09:38.053Z,17.4
2017-10-02T08:10:39.447Z,17.4
2017-10-02T08:11:40.849Z,17.4
2017-10-02T08:12:42.248Z,17.5
2017-10-02T08:13:43.639Z,17.5
2017-10-02T08:14:45.035Z,17.5
2017-10-02T08:15:46.427Z,17.6
2017-10-02T08:16:47.821Z,17.6
2017-10-02T08:17:49.216Z,17.6
2017-10-02T08:18:50.612Z,17.7
2017-10-02T08:19:52.009Z,17.6
2017-10-02T08:20:53.404Z,17.6
2017-10-02T08:21:54.819Z,17.7
2017-10-02T08:22:56.194Z,17.6
2017-10-02T08:23:57.588Z,17.7
2017-10-02T08:24:58.983Z,17.6
2017-10-02T08:26:00.379Z,17.6
2017-10-02T08:27:01.773Z,17.7
2017-10-02T08:28:03.165Z,17.6
2017-10-02T08:29:04.558Z,17.6
2017-10-02T08:30:05.952Z,17.7
2017-10-02T08:31:07.345Z,17.6
2017-10-02T08:32:08.753Z,17.6
2017-10-02T08:33:10.152Z,17.6
2017-10-02T08:34:11.545Z,17.6
2017-10-02T08:35:12.935Z,17.7
2017-10-02T08:36:14.333Z,17.6
2017-10-02T08:37:15.727Z,17.6
2017-10-02T08:38:17.118Z,17.5
2017-10-02T08:39:18.514Z,17.6
2017-10-02T08:40:19.940Z,17.5
2017-10-02T08:41:21.557Z,17.6
2017-10-02T08:42:22.950Z,17.6
2017-10-02T08:43:24.341Z,17.6
2017-10-02T08:44:25.734Z,17.6
2017-10-02T08:45:27.156Z,17.6
2017-10-02T08:46:28.522Z,17.6
2017-10-02T08:47:29.919Z,17.7
2017-10-02T08:48:31.320Z,17.7
2017-10-02T08:49:32.712Z,17.6
2017-10-02T08:50:34.110Z,17.7
2017-10-02T08:51:35.504Z,17.8
2017-10-02T08:52:36.901Z,17.9
2017-10-02T08:53:38.297Z,17.8
2017-10-02T08:54:39.695Z,17.8
2017-10-02T08:55:41.095Z,17.9
2017-10-02T08:56:42.490Z,17.8
2017-10-02T08:57:43.887Z,17.8
2017-10-02T08:58:45.283Z,17.7
2017-10-02T08:59:46.681Z,17.7
2017-10-02T09:00:48.077Z,17.8
2017-10-02T09:01:49.476Z,17.7
2017-10-02T09:02:50.872Z,17.8
2017-10-02T09:03:52.368Z,17.9
2017-10-02T09:04:54.648Z,17.8
2017-10-02T09:05:57.502Z,17.8
2017-10-02T09:06:58.770Z,17.8
2017-10-02T09:08:00.184Z,17.7
2017-10-02T09:09:01.588Z,17.8
2017-10-02T09:10:02.987Z,17.8
2017-10-02T09:11:04.383Z,17.8
2017-10-02T09:12:05.797Z,17.9
2017-10-02T09:13:07.191Z,17.9
2017-10-02T09:14:08.585Z,17.9
2017-10-02T09:15:09.979Z,17.9
2017-10-02T09:16:11.377Z,17.8
2017-10-02T09:17:12.788Z,17.9
2017-10-02T09:18:14.269Z,17.9
2017-10-02T09:19:15.690Z,17.9
2017-10-02T09:20:17.061Z,17.9
2017-10-02T09:21:18.458Z,17.8
2017-10-02T09:22:19.851Z,18.0
2017-10-02T09:23:21.248Z,17.9
2017-10-02T09:24:22.647Z,18.0
2017-10-02T09:25:24.038Z,17.9
2017-10-02T09:26:25.436Z,17.9
2017-10-02T09:27:26.833Z,17.9
2017-10-02T09:28:28.232Z,17.9
2017-10-02T09:29:29.630Z,18.0
2017-10-02T09:30:31.027Z,17.9
2017-10-02T09:31:32.423Z,17.9
2017-10-02T09:32:33.815Z,17.9
2017-10-02T09:33:35.210Z,17.9
2017-10-02T09:34:36.608Z,18.0
2017-10-02T09:35:38.009Z,18.0
2017-10-02T09:36:39.404Z,18.0
2017-10-02T09:37:40.809Z,18.0
2017-10-02T09:38:42.199Z,18.0
2017-10-02T09:39:43.599Z,18.0
2017-10-02T09:40:44.994Z,17.9
2017-10-02T09:41:46.391Z,18.0
2017-10-02T09:42:47.788Z,18.0
2017-10-02T09:43:49.184Z,18.0
2017-10-02T09:44:50.582Z,18.0
2017-10-02T09:45:51.981Z,18.1
2017-10-02T09:46:53.377Z,18.2
2017-10-02T09:47:54.775Z,18.1
2017-10-02T09:48:56.168Z,18.1
2017-10-02T09:49:57.564Z,18.2
2017-10-02T09:50:58.959Z,18.2
2017-10-02T09:52:00.357Z,18.2
2017-10-02T09:53:01.754Z,18.4
2017-10-02T09:54:03.148Z,18.3
2017-10-02T09:55:04.547Z,18.4
2017-10-02T09:56:05.941Z,18.4
2017-10-02T09:57:07.337Z,18.4
2017-10-02T09:58:08.735Z,18.3
2017-10-02T09:59:10.133Z,18.3
2017-10-02T10:00:11.527Z,18.3
2017-10-02T10:01:12.920Z,18.2
2017-10-02T10:02:14.321Z,18.2
2017-10-02T10:03:15.711Z,18.2
2017-10-02T10:04:17.109Z,18.3
2017-10-02T10:05:18.505Z,18.2
2017-10-02T10:06:19.902Z,18.2
2017-10-02T10:07:21.303Z,18.4
2017-10-02T10:08:22.694Z,18.2
2017-10-02T10:09:24.093Z,18.3
2017-10-02T10:10:25.487Z,18.3
2017-10-02T10:11:26.883Z,18.3
2017-10-02T10:12:28.280Z,18.4
2017-10-02T10:13:29.678Z,18.4
2017-10-02T10:14:31.114Z,18.4
2017-10-02T10:15:32.531Z,18.4
2017-10-02T10:16:33.930Z,18.4
2017-10-02T10:17:35.381Z,18.5
2017-10-02T10:18:36.780Z,18.5
2017-10-02T10:19:38.180Z,18.6
2017-10-02T10:20:39.574Z,18.6
2017-10-02T10:21:40.973Z,18.7
2017-10-02T10:22:42.363Z,18.7
2017-10-02T10:23:43.763Z,18.7
2017-10-02T10:24:45.159Z,18.9
2017-10-02T10:25:46.558Z,18.9
2017-10-02T10:26:47.952Z,18.9
2017-10-02T10:27:49.389Z,18.9
2017-10-02T10:28:50.788Z,18.9
2017-10-02T10:29:52.192Z,19.0
2017-10-02T10:30:53.578Z,19.0
2017-10-02T10:31:54.974Z,19.0
2017-10-02T10:32:56.373Z,19.0
2017-10-02T10:33:57.769Z,19.1
2017-10-02T10:34:59.175Z,19.1
2017-10-02T10:36:00.572Z,19.0
2017-10-02T10:37:01.965Z,19.1
2017-10-02T10:38:03.361Z,19.0
2017-10-02T10:39:04.758Z,19.0
2017-10-02T10:40:06.154Z,19.0
2017-10-02T10:41:07.549Z,18.9
2017-10-02T10:42:08.949Z,18.9
2017-10-02T10:43:10.399Z,18.9
2017-10-02T10:44:11.792Z,18.9
2017-10-02T10:45:13.188Z,18.8
2017-10-02T10:46:14.583Z,18.8
2017-10-02T10:47:15.987Z,18.8
2017-10-02T10:48:17.376Z,18.8
2017-10-02T10:49:18.775Z,18.9
2017-10-02T10:50:20.212Z,18.8
2017-10-02T10:51:21.604Z,18.8
2017-10-02T10:52:22.997Z,18.7
2017-10-02T10:53:24.394Z,18.7
2017-10-02T10:54:25.788Z,18.8
2017-10-02T10:55:27.184Z,18.7
2017-10-02T10:56:28.586Z,18.8
2017-10-02T10:57:29.984Z,18.9
2017-10-02T10:58:31.381Z,19.0
2017-10-02T10:59:32.775Z,19.0
2017-10-02T11:00:34.172Z,19.0
2017-10-02T11:01:35.571Z,19.0
2017-10-02T11:02:36.969Z,19.0
2017-10-02T11:03:38.364Z,19.0
2017-10-02T11:04:39.764Z,19.2
2017-10-02T11:05:41.159Z,19.3
2017-10-02T11:06:42.556Z,19.3
2017-10-02T11:07:43.954Z,19.3
2017-10-02T11:08:45.349Z,19.2
2017-10-02T11:09:46.745Z,19.1
2017-10-02T11:10:48.142Z,19.1
2017-10-02T11:11:49.541Z,19.1
2017-10-02T11:12:50.939Z,19.0
2017-10-02T11:13:52.336Z,19.1
2017-10-02T11:14:53.736Z,19.1
2017-10-02T11:15:55.135Z,19.2
2017-10-02T11:16:56.532Z,19.1
2017-10-02T11:17:57.928Z,19.1
2017-10-02T11:18:59.326Z,19.1
2017-10-02T11:20:00.725Z,19.1
2017-10-02T11:21:02.124Z,19.1
2017-10-02T11:22:03.518Z,19.0
2017-10-02T11:23:04.915Z,19.1
2017-10-02T11:24:06.317Z,19.1
2017-10-02T11:25:07.716Z,19.2
2017-10-02T11:26:09.116Z,19.2
2017-10-02T11:27:10.511Z,19.3
2017-10-02T11:28:11.909Z,19.5
2017-10-02T11:29:13.305Z,19.7
2017-10-02T11:30:14.704Z,19.8
2017-10-02T11:31:16.132Z,19.8
2017-10-02T11:32:17.511Z,19.7
2017-10-02T11:33:18.911Z,20.0
2017-10-02T11:34:20.306Z,20.0
2017-10-02T11:35:21.707Z,20.0
2017-10-02T11:36:23.104Z,20.1
2017-10-02T11:37:24.502Z,19.9
2017-10-02T11:38:25.897Z,19.9
2017-10-02T11:39:27.298Z,19.9
2017-10-02T11:40:28.696Z,20.1
2017-10-02T11:41:30.095Z,20.2
2017-10-02T11:42:31.489Z,20.3
2017-10-02T11:43:32.887Z,20.3
2017-10-02T11:44:34.289Z,20.5
2017-10-02T11:45:35.686Z,20.4
2017-10-02T11:46:37.093Z,20.4
2017-10-02T11:47:38.483Z,20.2
2017-10-02T11:48:39.882Z,20.4
2017-10-02T11:49:41.275Z,20.3
2017-10-02T11:50:42.675Z,20.3
2017-10-02T11:51:44.074Z,20.4
2017-10-02T11:52:45.467Z,20.2
2017-10-02T11:53:46.869Z,20.3
2017-10-02T11:54:48.288Z,20.4
2017-10-02T11:55:49.663Z,20.4
2017-10-02T11:56:51.061Z,20.2
2017-10-02T11:57:52.468Z,20.1
2017-10-02T11:58:53.872Z,20.3
2017-10-02T11:59:55.267Z,20.5
2017-10-02T12:00:56.669Z,20.7
2017-10-02T12:01:58.069Z,20.9
2017-10-02T12:02:59.467Z,21.1
2017-10-02T12:04:00.863Z,21.0
2017-10-02T12:05:02.262Z,21.0
2017-10-02T12:06:03.659Z,21.3
2017-10-02T12:07:05.056Z,21.5
2017-10-02T12:08:06.458Z,21.4
2017-10-02T12:09:07.869Z,21.5
2017-10-02T12:10:09.286Z,21.7
2017-10-02T12:11:10.702Z,21.8
2017-10-02T12:12:12.113Z,21.9
2017-10-02T12:13:13.523Z,22.0
2017-10-02T12:14:14.929Z,21.8
2017-10-02T12:15:16.329Z,21.8
2017-10-02T12:16:17.731Z,22.0
2017-10-02T12:17:19.126Z,21.9
2017-10-02T12:18:20.525Z,22.0
2017-10-02T12:19:21.922Z,21.6
2017-10-02T12:20:23.370Z,21.4
2017-10-02T12:21:24.766Z,21.3
2017-10-02T12:22:26.167Z,21.4
2017-10-02T12:23:27.568Z,21.1
2017-10-02T12:24:28.969Z,21.5
2017-10-02T12:25:30.368Z,21.8
2017-10-02T12:26:31.765Z,21.8
2017-10-02T12:27:33.164Z,21.5
2017-10-02T12:28:34.567Z,21.8
2017-10-02T12:29:35.966Z,21.7
2017-10-02T12:30:37.378Z,21.6
2017-10-02T12:31:38.763Z,21.7
2017-10-02T12:32:40.162Z,21.9
2017-10-02T12:33:41.563Z,22.0
2017-10-02T12:34:42.965Z,21.8
2017-10-02T12:35:44.359Z,21.7
2017-10-02T12:36:45.797Z,21.6
2017-10-02T12:37:47.205Z,21.7
2017-10-02T12:38:48.602Z,21.5
2017-10-02T12:39:50.006Z,21.8
2017-10-02T12:40:51.404Z,21.9
2017-10-02T12:41:52.816Z,22.1
2017-10-02T12:42:54.220Z,22.3
2017-10-02T12:43:55.620Z,22.4
2017-10-02T12:44:57.020Z,22.6
2017-10-02T12:45:58.420Z,22.5
2017-10-02T12:46:59.816Z,22.4
2017-10-02T12:48:01.212Z,22.2
2017-10-02T12:49:02.614Z,22.1
2017-10-02T12:50:04.015Z,22.2
2017-10-02T12:51:05.416Z,22.3
2017-10-02T12:52:06.817Z,22.2
2017-10-02T12:53:08.215Z,22.0
2017-10-02T12:54:09.611Z,21.7
2017-10-02T12:55:11.012Z,21.4
2017-10-02T12:56:12.411Z,21.4
2017-10-02T12:57:13.809Z,21.3
2017-10-02T12:58:15.211Z,21.4
2017-10-02T12:59:16.610Z,21.7
2017-10-02T13:00:18.014Z,21.6
2017-10-02T13:01:19.415Z,21.5
2017-10-02T13:02:20.812Z,21.5
2017-10-02T13:03:22.212Z,21.7
2017-10-02T13:04:23.612Z,21.2
2017-10-02T13:05:25.014Z,21.4
2017-10-02T13:06:26.412Z,21.4
2017-10-02T13:07:27.814Z,21.2
2017-10-02T13:08:29.214Z,21.3
2017-10-02T13:09:30.621Z,21.3
2017-10-02T13:10:32.022Z,21.1
2017-10-02T13:11:33.425Z,21.3
2017-10-02T13:12:34.830Z,21.5
2017-10-02T13:13:36.230Z,21.5
2017-10-02T13:14:37.629Z,21.6
2017-10-02T13:15:39.034Z,21.6
2017-10-02T13:16:40.433Z,21.8
2017-10-02T13:17:41.831Z,21.9
2017-10-02T13:18:43.230Z,21.7
2017-10-02T13:19:44.672Z,21.9
2017-10-02T13:20:46.070Z,21.8
2017-10-02T13:21:47.466Z,21.8
2017-10-02T13:22:48.866Z,21.9
2017-10-02T13:23:50.263Z,21.9
2017-10-02T13:24:51.668Z,22.0
2017-10-02T13:25:53.063Z,22.1
2017-10-02T13:26:54.460Z,21.9
2017-10-02T13:27:55.861Z,21.8
2017-10-02T13:28:57.259Z,21.7
2017-10-02T13:29:58.657Z,21.9
2017-10-02T13:31:00.056Z,21.9
2017-10-02T13:32:01.453Z,21.9
2017-10-02T13:33:02.853Z,21.7
2017-10-02T13:34:04.251Z,21.7
2017-10-02T13:35:05.651Z,21.6
2017-10-02T13:36:07.047Z,21.3
2017-10-02T13:37:08.447Z,21.3